Ops, North Dakota
Current Conditions -  °F | °C
As of 8:58 PM on Friday 19 Dec 2014 (Local Time) from KRDR Reporting Station
Haze Haze  
Wind Chill: 23°   Ceiling: 800
Heat Index: 29°   Visibility: 6mi
Dew Point: 29°   Wind: 5mph
Humidity: 100%   Direction: 180°S
Pressure: 29.99"   Gusts: NA
Location:  48.2362°N, 97.4515°W
Report Text: KRDR 200258Z AUTO 18004KT 6SM R35/5000FT BR OVC008 M02/M02 A2999 RMK AO2 SLP174 T10191019 57007
Loading
Personal Weather Stations






























Interactive Weather Map New forecast layout! Learn more

10-Day Weather Forecast

Advertisements
Track Severe Weather on mobile